createdAt,value
2023-05-03T00:00:21.168Z,57.10
2023-05-03T00:02:48.215Z,57.31
2023-05-03T00:08:13.360Z,57.27
2023-05-03T00:10:40.444Z,57.32
2023-05-03T00:13:07.943Z,57.20
2023-05-03T00:15:34.904Z,57.20
2023-05-03T00:18:02.023Z,57.30
2023-05-03T00:20:29.109Z,57.23
2023-05-03T00:22:56.086Z,57.27
2023-05-03T00:25:23.066Z,57.31
2023-05-03T00:27:50.040Z,57.14
2023-05-03T00:30:19.063Z,57.20
2023-05-03T00:32:46.243Z,57.34
2023-05-03T00:35:13.587Z,57.22
2023-05-03T00:37:40.722Z,57.24
2023-05-03T00:40:08.917Z,57.30
2023-05-03T00:42:37.065Z,57.25
2023-05-03T00:45:06.321Z,57.34
2023-05-03T00:47:33.374Z,57.34
2023-05-03T00:50:01.312Z,57.27
2023-05-03T00:52:29.325Z,57.43
2023-05-03T00:54:57.525Z,57.54
2023-05-03T00:57:25.832Z,57.57
2023-05-03T00:59:57.222Z,57.67
2023-05-03T01:02:24.998Z,57.67
2023-05-03T01:04:52.964Z,57.80
2023-05-03T01:07:44.323Z,57.86
2023-05-03T01:10:32.215Z,57.81
2023-05-03T01:13:14.855Z,57.87
2023-05-03T01:15:44.987Z,57.97
2023-05-03T01:18:15.723Z,58.09
2023-05-03T01:20:44.493Z,58.18
2023-05-03T01:23:15.510Z,58.10
2023-05-03T01:25:42.683Z,58.10
2023-05-03T01:28:09.713Z,58.01
2023-05-03T01:30:37.063Z,58.07
2023-05-03T01:33:13.187Z,58.17
2023-05-03T01:35:47.861Z,58.35
2023-05-03T01:38:14.991Z,58.44
2023-05-03T01:40:51.468Z,58.44
2023-05-03T01:43:20.359Z,58.58
2023-05-03T01:45:47.367Z,58.68
2023-05-03T01:48:18.462Z,58.91
2023-05-03T01:50:46.056Z,59.30
2023-05-03T01:53:13.054Z,59.39
2023-05-03T01:55:40.201Z,59.57
2023-05-03T01:58:07.230Z,59.61
2023-05-03T02:00:34.269Z,59.77
2023-05-03T02:03:01.284Z,60.02
2023-05-03T02:05:28.314Z,60.18
2023-05-03T02:07:55.271Z,60.36
2023-05-03T02:10:22.278Z,60.44
2023-05-03T02:12:49.246Z,60.60
2023-05-03T02:15:16.985Z,60.73
2023-05-03T02:17:44.206Z,60.75
2023-05-03T02:20:12.773Z,61.08
2023-05-03T02:22:39.912Z,61.13
2023-05-03T02:25:07.722Z,61.21
2023-05-03T02:27:34.667Z,61.30
2023-05-03T02:30:02.115Z,61.42
2023-05-03T02:32:31.598Z,61.49
2023-05-03T02:34:59.407Z,61.57
2023-05-03T02:37:26.453Z,61.80
2023-05-03T02:39:53.783Z,61.85
2023-05-03T02:42:21.078Z,62.09
2023-05-03T02:44:49.084Z,62.37
2023-05-03T02:47:16.403Z,62.42
2023-05-03T02:49:43.755Z,62.68
2023-05-03T02:52:11.017Z,62.94
2023-05-03T02:54:38.104Z,63.09
2023-05-03T02:57:07.644Z,63.31
2023-05-03T02:59:34.688Z,63.62
2023-05-03T03:02:01.991Z,63.68
2023-05-03T03:04:29.889Z,63.69
2023-05-03T03:06:57.293Z,63.98
2023-05-03T03:09:24.697Z,64.31
2023-05-03T03:11:52.441Z,64.36
2023-05-03T03:14:19.995Z,64.38
2023-05-03T03:16:47.185Z,64.71
2023-05-03T03:19:14.165Z,64.69
2023-05-03T03:21:41.836Z,64.91
2023-05-03T03:24:09.163Z,64.95
2023-05-03T03:26:36.322Z,65.06
2023-05-03T03:29:03.298Z,65.13
2023-05-03T03:31:31.326Z,65.18
2023-05-03T03:33:58.558Z,65.23
2023-05-03T03:36:28.078Z,65.20
2023-05-03T03:38:55.405Z,65.29
2023-05-03T03:41:23.170Z,65.29
2023-05-03T03:43:50.604Z,65.24
2023-05-03T03:46:18.137Z,65.37
2023-05-03T03:48:45.591Z,65.39
2023-05-03T03:51:12.740Z,65.31
2023-05-03T03:53:43.221Z,65.27
2023-05-03T03:56:10.213Z,65.07
2023-05-03T03:58:37.312Z,65.23
2023-05-03T04:01:04.905Z,65.18
2023-05-03T04:03:32.037Z,65.08
2023-05-03T04:05:59.151Z,65.08
2023-05-03T04:08:26.414Z,64.94
2023-05-03T04:10:53.502Z,64.73
2023-05-03T04:13:21.005Z,64.55
2023-05-03T04:15:50.057Z,64.13
2023-05-03T04:18:17.100Z,63.95
2023-05-03T04:20:44.686Z,63.98
2023-05-03T04:23:11.888Z,63.95
2023-05-03T04:25:39.050Z,63.91
2023-05-03T04:28:11.072Z,63.74
2023-05-03T04:30:47.085Z,63.79
2023-05-03T04:33:15.651Z,63.76
2023-05-03T04:35:42.761Z,63.74
2023-05-03T04:38:12.716Z,63.88
2023-05-03T04:40:41.301Z,63.69
2023-05-03T04:43:09.791Z,63.75
2023-05-03T04:45:39.752Z,63.75
2023-05-03T04:48:08.225Z,63.65
2023-05-03T04:50:36.136Z,63.46
2023-05-03T04:53:04.226Z,63.33
2023-05-03T04:55:32.211Z,63.26
2023-05-03T04:57:59.356Z,63.18
2023-05-03T05:00:26.426Z,63.25
2023-05-03T05:02:59.067Z,63.11
2023-05-03T05:05:27.338Z,63.01
2023-05-03T05:07:54.561Z,62.83
2023-05-03T05:10:21.602Z,62.76
2023-05-03T05:12:48.639Z,62.51
2023-05-03T05:15:15.776Z,62.33
2023-05-03T05:17:44.172Z,62.16
2023-05-03T05:20:13.453Z,61.90
2023-05-03T05:22:42.974Z,61.50
2023-05-03T05:25:10.196Z,61.42
2023-05-03T05:27:37.367Z,61.34
2023-05-03T05:30:05.468Z,61.12
2023-05-03T05:32:33.679Z,60.87
2023-05-03T05:35:01.343Z,60.36
2023-05-03T05:37:28.741Z,59.89
2023-05-03T05:39:57.914Z,59.40
2023-05-03T05:42:27.064Z,58.91
2023-05-03T05:44:54.017Z,58.59
2023-05-03T05:47:21.928Z,57.83
2023-05-03T05:49:49.899Z,56.83
2023-05-03T05:52:16.930Z,56.69
2023-05-03T05:54:44.044Z,55.79
2023-05-03T05:57:11.143Z,54.98
2023-05-03T05:59:38.698Z,54.12
2023-05-03T06:02:05.909Z,53.55
2023-05-03T06:04:32.987Z,53.11
2023-05-03T06:07:00.040Z,52.43
2023-05-03T06:09:27.070Z,51.40
2023-05-03T06:11:57.660Z,50.70
2023-05-03T06:14:25.901Z,50.12
2023-05-03T06:16:54.017Z,49.87
2023-05-03T06:19:21.228Z,49.31
2023-05-03T06:21:48.164Z,48.93
2023-05-03T06:24:21.273Z,48.57
2023-05-03T06:26:50.855Z,47.96
2023-05-03T06:29:18.427Z,47.34
2023-05-03T06:31:46.047Z,47.00
2023-05-03T06:34:13.494Z,46.54
2023-05-03T06:36:41.878Z,45.92
2023-05-03T06:39:09.659Z,45.18
2023-05-03T06:41:36.895Z,44.63
2023-05-03T06:44:07.505Z,44.11
2023-05-03T06:46:34.524Z,43.99
2023-05-03T06:49:01.611Z,44.03
2023-05-03T06:51:30.120Z,43.60
2023-05-03T06:53:57.837Z,43.60
2023-05-03T06:56:24.941Z,42.72
2023-05-03T06:58:51.890Z,42.31
2023-05-03T07:01:20.785Z,42.49
2023-05-03T07:03:48.033Z,42.42
2023-05-03T07:06:15.803Z,41.22
2023-05-03T07:08:42.890Z,39.96
2023-05-03T07:11:10.334Z,39.31
2023-05-03T07:13:37.246Z,39.16
2023-05-03T07:16:04.430Z,38.90
2023-05-03T07:18:31.469Z,38.58
2023-05-03T07:20:58.613Z,38.78
2023-05-03T07:23:25.639Z,39.07
2023-05-03T07:25:54.174Z,38.79
2023-05-03T07:28:22.296Z,38.62
2023-05-03T07:30:49.362Z,38.63
2023-05-03T07:33:16.616Z,38.64
2023-05-03T07:35:46.627Z,38.70
2023-05-03T07:38:13.706Z,38.70
2023-05-03T07:40:41.832Z,38.30
2023-05-03T07:43:10.436Z,37.80
2023-05-03T07:45:37.755Z,37.30
2023-05-03T07:48:05.516Z,36.73
2023-05-03T07:50:32.785Z,36.37
2023-05-03T07:53:00.074Z,36.02
2023-05-03T07:55:27.328Z,35.16
2023-05-03T07:57:59.082Z,34.57
2023-05-03T08:00:27.416Z,33.96
2023-05-03T08:02:54.710Z,33.31
2023-05-03T08:05:22.009Z,32.45
2023-05-03T08:07:49.835Z,31.10
2023-05-03T08:10:16.972Z,30.43
2023-05-03T08:12:44.106Z,30.08
2023-05-03T08:15:11.600Z,29.80
2023-05-03T08:17:42.897Z,29.95
2023-05-03T08:20:10.832Z,30.05
2023-05-03T08:22:41.516Z,29.84
2023-05-03T08:25:09.054Z,29.87
2023-05-03T08:27:36.927Z,30.19
2023-05-03T08:30:05.242Z,30.51
2023-05-03T08:32:32.808Z,30.98
2023-05-03T08:35:00.119Z,31.84
2023-05-03T08:37:28.525Z,32.66
2023-05-03T08:39:56.574Z,32.81
2023-05-03T08:42:25.760Z,33.28
2023-05-03T08:44:53.405Z,33.57
2023-05-03T08:47:22.136Z,33.93
2023-05-03T08:49:49.218Z,33.98
2023-05-03T08:52:18.614Z,33.48
2023-05-03T08:54:47.183Z,33.60
2023-05-03T08:57:14.818Z,34.05
2023-05-03T08:59:53.837Z,34.37
2023-05-03T09:02:21.487Z,34.38
2023-05-03T09:04:48.509Z,34.31
2023-05-03T09:07:16.961Z,34.54
2023-05-03T09:09:46.326Z,34.73
2023-05-03T09:12:33.105Z,34.90
2023-05-03T09:15:01.155Z,35.14
2023-05-03T09:17:28.368Z,35.41
2023-05-03T09:19:57.649Z,35.52
2023-05-03T09:22:30.880Z,35.61
2023-05-03T09:25:01.500Z,35.80
2023-05-03T09:27:28.581Z,35.90
2023-05-03T09:29:55.632Z,35.80
2023-05-03T09:32:23.255Z,36.07
2023-05-03T09:34:50.281Z,36.58
2023-05-03T09:37:17.802Z,36.65
2023-05-03T09:39:48.244Z,36.48
2023-05-03T09:42:16.489Z,36.17
2023-05-03T09:44:54.253Z,35.94
2023-05-03T09:47:25.872Z,35.75
2023-05-03T09:49:53.171Z,35.59
2023-05-03T09:52:20.110Z,35.65
2023-05-03T09:54:47.462Z,35.94
2023-05-03T09:57:15.217Z,35.80
2023-05-03T09:59:42.446Z,35.79
2023-05-03T10:02:09.463Z,35.82
2023-05-03T10:04:43.858Z,35.69
2023-05-03T10:07:15.225Z,35.35
2023-05-03T10:09:48.373Z,34.95
2023-05-03T10:12:17.736Z,34.87
2023-05-03T10:14:46.371Z,35.07
2023-05-03T10:17:35.755Z,35.38
2023-05-03T10:20:27.934Z,35.32
2023-05-03T10:23:14.189Z,34.97
2023-05-03T10:26:09.882Z,35.12
2023-05-03T10:28:40.249Z,35.08
2023-05-03T10:31:09.486Z,35.45
2023-05-03T10:33:37.075Z,35.30
2023-05-03T10:36:10.867Z,35.32
2023-05-03T10:38:38.266Z,35.58
2023-05-03T10:41:07.377Z,35.49
2023-05-03T10:43:34.559Z,35.47
2023-05-03T10:46:05.959Z,35.04
2023-05-03T10:48:34.064Z,34.57
2023-05-03T10:51:28.853Z,34.61
2023-05-03T10:53:56.081Z,34.55
2023-05-03T10:56:24.220Z,34.78
2023-05-03T10:58:55.814Z,34.86
2023-05-03T11:01:22.756Z,35.05
2023-05-03T11:03:52.155Z,34.90
2023-05-03T11:06:30.126Z,34.97
2023-05-03T11:08:57.356Z,34.72
2023-05-03T11:11:24.341Z,34.90
2023-05-03T11:13:52.126Z,34.99
2023-05-03T11:16:19.226Z,34.95
2023-05-03T11:18:46.517Z,34.91
2023-05-03T11:21:13.888Z,34.97
2023-05-03T11:23:41.767Z,34.78
2023-05-03T11:26:09.977Z,34.89
2023-05-03T11:28:40.536Z,34.88
2023-05-03T11:31:08.401Z,34.75
2023-05-03T11:33:37.393Z,34.47
2023-05-03T11:36:05.164Z,34.44
2023-05-03T11:38:35.987Z,34.47
2023-05-03T11:41:18.951Z,34.44
2023-05-03T11:43:50.912Z,34.49
2023-05-03T11:46:22.866Z,34.74
2023-05-03T11:48:49.934Z,34.70
2023-05-03T11:51:21.835Z,34.49
2023-05-03T11:53:49.334Z,34.61
2023-05-03T11:56:20.657Z,34.44
2023-05-03T11:58:52.059Z,34.51
2023-05-03T12:01:21.971Z,34.44
2023-05-03T12:03:53.404Z,34.36
2023-05-03T12:06:21.033Z,34.40
2023-05-03T12:08:50.156Z,34.35
2023-05-03T12:11:18.219Z,34.39
2023-05-03T12:13:47.711Z,34.37
2023-05-03T12:16:19.331Z,34.38
2023-05-03T12:18:47.355Z,34.61
2023-05-03T12:23:46.061Z,34.39
2023-05-03T12:26:14.566Z,34.44
2023-05-03T12:28:41.938Z,34.13
2023-05-03T12:31:09.402Z,34.24
2023-05-03T12:33:38.642Z,34.13
2023-05-03T12:36:09.408Z,34.24
2023-05-03T12:38:37.872Z,34.26
2023-05-03T12:41:08.766Z,34.26
2023-05-03T12:43:36.701Z,34.37
2023-05-03T12:48:34.027Z,34.45
2023-05-03T12:51:18.622Z,34.30
2023-05-03T12:53:47.759Z,34.43
2023-05-03T12:56:15.304Z,34.47
2023-05-03T13:03:44.459Z,33.84
2023-05-03T13:06:19.405Z,33.80
2023-05-03T13:08:49.882Z,33.71
2023-05-03T13:11:19.597Z,33.78
2023-05-03T13:13:47.248Z,33.93
2023-05-03T13:16:14.638Z,34.14
2023-05-03T13:18:43.111Z,34.20
2023-05-03T13:21:11.275Z,34.15
2023-05-03T13:23:38.428Z,34.22
2023-05-03T13:26:07.263Z,34.25
2023-05-03T13:28:34.333Z,34.20
2023-05-03T13:31:01.691Z,34.34
2023-05-03T13:33:29.495Z,34.52
2023-05-03T13:35:56.870Z,34.62
2023-05-03T13:38:23.893Z,34.86
2023-05-03T13:40:50.924Z,34.94
2023-05-03T13:43:17.904Z,34.93
2023-05-03T13:45:45.019Z,35.09
2023-05-03T13:48:18.598Z,35.15
2023-05-03T13:50:46.306Z,35.30
2023-05-03T13:53:13.404Z,35.03
2023-05-03T13:55:40.301Z,34.89
2023-05-03T13:58:07.586Z,34.62
2023-05-03T14:00:34.541Z,34.55
2023-05-03T14:03:01.924Z,34.49
2023-05-03T14:05:29.597Z,34.55
2023-05-03T14:07:57.415Z,35.11
2023-05-03T14:10:24.893Z,35.63
2023-05-03T14:12:53.392Z,35.79
2023-05-03T14:15:20.588Z,35.94
2023-05-03T14:17:48.080Z,36.12
2023-05-03T14:20:17.650Z,36.22
2023-05-03T14:22:45.582Z,36.44
2023-05-03T14:25:13.002Z,36.66
2023-05-03T14:27:40.446Z,36.71
2023-05-03T14:30:10.052Z,36.55
2023-05-03T14:32:37.152Z,36.59
2023-05-03T14:35:04.325Z,36.66
2023-05-03T14:37:31.421Z,36.80
2023-05-03T14:39:58.815Z,36.76
2023-05-03T14:42:29.764Z,36.71
2023-05-03T14:44:56.932Z,36.83
2023-05-03T14:47:24.024Z,36.89
2023-05-03T14:49:51.895Z,37.06
2023-05-03T14:52:19.368Z,37.05
2023-05-03T14:54:46.433Z,37.26
2023-05-03T14:57:13.428Z,37.08
2023-05-03T14:59:40.583Z,37.15
2023-05-03T15:02:07.678Z,37.41
2023-05-03T15:04:37.039Z,37.58
2023-05-03T15:07:05.345Z,37.37
2023-05-03T15:09:33.761Z,37.42
2023-05-03T15:12:02.129Z,37.72
2023-05-03T15:14:29.303Z,37.82
2023-05-03T15:16:56.486Z,37.86
2023-05-03T15:19:23.815Z,37.83
2023-05-03T15:21:51.639Z,38.19
2023-05-03T15:24:18.779Z,38.15
2023-05-03T15:26:47.003Z,38.20
2023-05-03T15:29:15.099Z,38.23
2023-05-03T15:31:42.995Z,38.29
2023-05-03T15:34:12.651Z,38.38
2023-05-03T15:36:40.839Z,38.35
2023-05-03T15:39:08.057Z,38.59
2023-05-03T15:41:35.071Z,38.57
2023-05-03T15:44:05.572Z,38.64
2023-05-03T15:46:34.514Z,38.68
2023-05-03T15:49:01.971Z,38.81
2023-05-03T15:51:29.433Z,38.75
2023-05-03T15:53:56.415Z,38.71
2023-05-03T15:56:23.343Z,38.78
2023-05-03T15:58:50.443Z,38.90
2023-05-03T16:01:18.839Z,39.22
2023-05-03T16:03:46.377Z,39.22
2023-05-03T16:06:16.889Z,39.53
2023-05-03T16:08:44.155Z,39.67
2023-05-03T16:11:11.346Z,39.70
2023-05-03T16:13:38.649Z,39.73
2023-05-03T16:16:05.918Z,39.62
2023-05-03T16:18:32.966Z,39.81
2023-05-03T16:21:01.492Z,39.84
2023-05-03T16:23:28.707Z,39.91
2023-05-03T16:25:56.790Z,39.88
2023-05-03T16:28:23.792Z,39.88
2023-05-03T16:30:50.847Z,39.92
2023-05-03T16:33:18.379Z,39.94
2023-05-03T16:35:45.340Z,39.98
2023-05-03T16:38:12.528Z,40.24
2023-05-03T16:40:40.700Z,40.28
2023-05-03T16:43:07.833Z,40.15
2023-05-03T16:45:34.864Z,40.28
2023-05-03T16:48:04.504Z,40.46
2023-05-03T16:50:32.728Z,40.43
2023-05-03T16:52:59.795Z,40.44
2023-05-03T16:55:26.715Z,40.53
2023-05-03T16:57:53.695Z,40.80
2023-05-03T17:00:22.039Z,40.90
2023-05-03T17:02:49.223Z,41.24
2023-05-03T17:05:16.306Z,41.68
2023-05-03T17:07:43.333Z,41.87
2023-05-03T17:10:10.733Z,42.02
2023-05-03T17:12:37.985Z,42.30
2023-05-03T17:15:05.438Z,42.62
2023-05-03T17:17:35.244Z,43.05
2023-05-03T17:20:02.658Z,43.20
2023-05-03T17:22:29.925Z,43.27
2023-05-03T17:24:58.129Z,43.41
2023-05-03T17:27:25.446Z,43.55
2023-05-03T17:29:52.655Z,43.71
2023-05-03T17:32:19.676Z,44.14
2023-05-03T17:34:46.645Z,44.36
2023-05-03T17:37:14.087Z,44.52
2023-05-03T17:39:41.632Z,44.62
2023-05-03T17:42:09.139Z,44.70
2023-05-03T17:44:36.190Z,44.87
2023-05-03T17:47:03.775Z,45.05
2023-05-03T17:49:33.146Z,44.89
2023-05-03T17:52:00.368Z,45.13
2023-05-03T17:54:30.479Z,45.30
2023-05-03T17:56:57.490Z,45.64
2023-05-03T17:59:24.551Z,46.11
2023-05-03T18:01:51.570Z,47.08
2023-05-03T18:04:18.579Z,47.64
2023-05-03T18:06:45.816Z,48.17
2023-05-03T18:09:13.376Z,48.78
2023-05-03T18:11:41.450Z,49.93
2023-05-03T18:14:08.568Z,52.77
2023-05-03T18:16:36.416Z,56.21
2023-05-03T18:19:04.269Z,60.80
2023-05-03T18:21:31.298Z,64.79
2023-05-03T18:23:58.564Z,66.56
2023-05-03T18:26:25.673Z,69.91
2023-05-03T18:28:53.739Z,72.25
2023-05-03T18:31:25.397Z,75.35
2023-05-03T18:33:53.186Z,77.85
2023-05-03T18:36:21.910Z,78.50
2023-05-03T18:38:53.295Z,78.51
2023-05-03T18:41:20.281Z,78.76
2023-05-03T18:43:47.320Z,77.32
2023-05-03T18:46:20.783Z,76.60
2023-05-03T18:48:47.887Z,76.15
2023-05-03T18:51:15.117Z,75.39
2023-05-03T18:53:43.639Z,74.82
2023-05-03T18:56:10.770Z,74.22
2023-05-03T18:58:37.735Z,74.07
2023-05-03T19:01:06.074Z,73.94
2023-05-03T19:03:33.388Z,74.01
2023-05-03T19:06:04.261Z,74.24
2023-05-03T19:08:31.806Z,74.58
2023-05-03T19:11:07.157Z,74.50
2023-05-03T19:13:34.250Z,74.76
2023-05-03T19:16:01.160Z,74.63
2023-05-03T19:18:28.196Z,75.49
2023-05-03T19:20:56.696Z,76.44
2023-05-03T19:23:23.901Z,77.46
2023-05-03T19:25:50.828Z,78.17
2023-05-03T19:28:17.789Z,78.72
2023-05-03T19:30:46.137Z,79.43
2023-05-03T19:33:13.215Z,80.00
2023-05-03T19:35:40.753Z,80.70
2023-05-03T19:38:07.734Z,81.19
2023-05-03T19:40:34.880Z,81.59
2023-05-03T19:43:02.444Z,82.49
2023-05-03T19:45:29.585Z,83.00
2023-05-03T19:47:56.629Z,83.48
2023-05-03T19:50:23.738Z,83.65
2023-05-03T19:52:53.937Z,83.84
2023-05-03T19:55:21.001Z,84.09
2023-05-03T19:57:48.131Z,84.62
2023-05-03T20:00:17.576Z,84.81
2023-05-03T20:02:44.741Z,84.54
2023-05-03T20:05:11.858Z,84.69
2023-05-03T20:07:38.992Z,84.61
2023-05-03T20:10:06.832Z,84.62
2023-05-03T20:12:34.167Z,84.50
2023-05-03T20:15:01.371Z,84.76
2023-05-03T20:17:28.437Z,84.63
2023-05-03T20:19:55.663Z,84.71
2023-05-03T20:22:22.793Z,84.90
2023-05-03T20:24:51.148Z,84.91
2023-05-03T20:27:19.508Z,85.29
2023-05-03T20:29:46.532Z,85.56
2023-05-03T20:32:13.678Z,85.80
2023-05-03T20:34:40.824Z,86.15
2023-05-03T20:37:08.481Z,86.27
2023-05-03T20:39:35.670Z,86.78
2023-05-03T20:42:02.769Z,87.02
2023-05-03T20:44:29.838Z,87.43
2023-05-03T20:46:57.057Z,87.78
2023-05-03T20:49:24.151Z,88.05
2023-05-03T20:51:51.067Z,88.49
2023-05-03T20:54:18.312Z,88.70
2023-05-03T20:56:45.540Z,88.90
2023-05-03T20:59:12.497Z,89.34
2023-05-03T21:01:40.983Z,90.01
2023-05-03T21:04:08.140Z,90.16
2023-05-03T21:06:38.300Z,90.45
2023-05-03T21:09:06.078Z,90.66
2023-05-03T21:11:33.109Z,90.99
2023-05-03T21:14:01.690Z,91.37
2023-05-03T21:16:29.249Z,91.80
2023-05-03T21:18:56.262Z,92.09
2023-05-03T21:21:24.347Z,92.18
2023-05-03T21:23:51.900Z,92.52
2023-05-03T21:26:19.107Z,92.72
2023-05-03T21:28:46.404Z,93.13
2023-05-03T21:31:13.576Z,93.67
2023-05-03T21:33:40.711Z,93.81
2023-05-03T21:36:07.762Z,94.34
2023-05-03T21:38:34.812Z,94.54
2023-05-03T21:41:05.859Z,94.92
2023-05-03T21:43:34.099Z,95.17
2023-05-03T21:46:02.009Z,95.56
2023-05-03T21:48:29.232Z,96.10
2023-05-03T21:50:56.169Z,96.36
2023-05-03T21:53:23.309Z,96.60
2023-05-03T21:55:50.493Z,97.61
2023-05-03T21:58:17.719Z,98.17
2023-05-03T22:00:44.715Z,98.64
2023-05-03T22:03:11.951Z,99.06
2023-05-03T22:05:47.890Z,99.67
2023-05-03T22:08:18.262Z,99.93
2023-05-03T22:10:45.771Z,100.00
2023-05-03T22:13:13.289Z,100.00
2023-05-03T22:15:40.441Z,100.00
2023-05-03T22:18:07.717Z,100.00
2023-05-03T22:20:34.884Z,100.00
2023-05-03T22:23:02.847Z,100.00
2023-05-03T22:25:32.100Z,100.00
2023-05-03T22:27:59.641Z,100.00
2023-05-03T22:30:26.944Z,100.00
2023-05-03T22:32:54.126Z,100.00
2023-05-03T22:35:21.355Z,100.00
2023-05-03T22:37:48.368Z,100.00
2023-05-03T22:40:15.453Z,100.00
2023-05-03T22:42:42.508Z,100.00
2023-05-03T22:45:10.044Z,100.00
2023-05-03T22:47:37.146Z,100.00
2023-05-03T22:50:04.784Z,100.00
2023-05-03T22:52:32.093Z,100.00
2023-05-03T22:55:00.620Z,100.00
2023-05-03T22:57:27.559Z,100.00
2023-05-03T22:59:54.728Z,100.00
2023-05-03T23:02:22.269Z,100.00
2023-05-03T23:04:49.313Z,100.00
2023-05-03T23:07:16.374Z,100.00
2023-05-03T23:09:43.327Z,100.00
2023-05-03T23:12:10.350Z,100.00
2023-05-03T23:14:39.158Z,100.00
2023-05-03T23:17:06.481Z,100.00
2023-05-03T23:19:33.935Z,100.00
2023-05-03T23:22:00.839Z,100.00
2023-05-03T23:24:27.805Z,100.00
2023-05-03T23:26:54.728Z,100.00
2023-05-03T23:29:22.527Z,100.00
2023-05-03T23:31:49.930Z,100.00
2023-05-03T23:34:18.708Z,100.00
2023-05-03T23:36:45.801Z,100.00
2023-05-03T23:39:13.209Z,100.00
2023-05-03T23:41:40.434Z,100.00
2023-05-03T23:44:08.018Z,100.00
2023-05-03T23:46:35.872Z,100.00
2023-05-03T23:49:02.903Z,100.00
2023-05-03T23:51:30.017Z,100.00
2023-05-03T23:53:56.949Z,100.00
2023-05-03T23:56:24.121Z,100.00
2023-05-03T23:58:51.432Z,100.00
